Time;durP1;ratioP1;P1;durP2;ratioP2;P2;SDS_P1;SDS_P2;PMS_P1;PMS_P2;Temp;Humidity;BMP_temperature;BMP_pressure;BME280_temperature;BME280_humidity;BME280_pressure;Samples;Min_cycle;Max_cycle;Signal;HPM_P1;HPM_P2
2023/10/14 00:01:12;;;;;;;;;;;;;;;6.12;78.82;99572.53;4945607;28;20037;-67
2023/10/14 00:03:41;;;;;;;;;;;;;;;6.14;78.69;99571.19;4941158;29;20413;-66
2023/10/14 00:06:07;;;;;;;;;;;;;;;6.15;78.37;99567.41;4957202;28;20695;-67
2023/10/14 00:08:33;;;;;;;;;;;;;;;6.17;78.11;99573.44;4948938;28;20335;-68
2023/10/14 00:11:00;;;;;;;;;;;;;;;6.18;77.99;99561.50;4965655;28;19926;-68
2023/10/14 00:13:31;;;;;;;;;;;;;;;6.25;77.83;99564.03;4964707;28;19930;-68
2023/10/14 00:16:08;;;;;;;;;;;;;;;6.21;77.92;99560.16;4953476;28;19944;-66
2023/10/14 00:18:34;;;;;;;;;;;;;;;6.22;78.27;99556.38;4956359;28;19926;-66
2023/10/14 00:20:59;;;;;;;;;;;;;;;6.20;78.10;99556.63;4960600;28;19936;-68
2023/10/14 00:23:26;;;;;;;;;;;;;;;6.21;78.11;99560.16;4962424;28;19934;-68
2023/10/14 00:25:54;;;;;;;;;;;;;;;6.21;78.46;99557.44;4956571;28;19930;-67
2023/10/14 00:28:20;;;;;;;;;;;;;;;6.25;78.14;99561.31;4945303;28;19961;-68
2023/10/14 00:30:47;;;;;;;;;;;;;;;6.26;78.35;99562.97;4963928;28;20430;-68
2023/10/14 00:33:13;;;;;;;;;;;;;;;6.24;78.52;99549.63;4949517;28;20390;-68
2023/10/14 00:35:41;;;;;;;;;;;;;;;6.29;78.09;99545.31;4947113;28;19932;-68
2023/10/14 00:38:10;;;;;;;;;;;;;;;6.29;77.97;99540.72;4945595;28;20215;-66
2023/10/14 00:40:38;;;;;;;;;;;;;;;6.30;77.76;99536.09;4949277;28;19925;-68
2023/10/14 00:43:04;;;;;;;;;;;;;;;6.27;77.65;99540.16;4963972;28;20045;-68
2023/10/14 00:45:30;;;;;;;;;;;;;;;6.28;77.60;99533.66;4945973;28;19988;-67
2023/10/14 00:47:59;;;;;;;;;;;;;;;6.27;78.04;99531.19;4963186;28;20401;-68
2023/10/14 00:50:34;;;;;;;;;;;;;;;6.25;78.28;99531.44;4962218;28;19952;-68
2023/10/14 00:53:05;;;;;;;;;;;;;;;6.24;78.46;99529.78;4963137;28;19933;-68
2023/10/14 00:58:14;;;;;;;;;;;;;;;6.23;78.48;99528.97;4948419;28;20487;-67
2023/10/14 01:00:56;;;;;;;;;;;;;;;6.20;78.57;99521.34;4962062;28;19925;-68
2023/10/14 01:03:24;;;;;;;;;;;;;;;6.20;78.31;99528.66;4962955;28;20016;-68
2023/10/14 01:05:50;;;;;;;;;;;;;;;6.19;78.14;99536.00;4962109;28;19926;-68
2023/10/14 01:08:17;;;;;;;;;;;;;;;6.17;78.15;99527.28;4963773;28;19933;-68
2023/10/14 01:10:43;;;;;;;;;;;;;;;6.14;78.19;99516.09;4960119;28;19934;-68
2023/10/14 01:13:14;;;;;;;;;;;;;;;6.11;78.45;99511.97;4964080;28;19926;-68
2023/10/14 01:15:43;;;;;;;;;;;;;;;6.08;78.72;99526.88;4942359;28;20040;-68
2023/10/14 01:18:14;;;;;;;;;;;;;;;6.07;78.62;99508.94;4947591;28;19932;-68
2023/10/14 01:20:42;;;;;;;;;;;;;;;6.05;78.33;99513.81;4956222;28;19926;-67
2023/10/14 01:23:14;;;;;;;;;;;;;;;6.03;78.25;99517.88;4930420;29;19926;-66
2023/10/14 01:26:03;;;;;;;;;;;;;;;6.01;78.27;99515.41;4926818;28;19954;-67
2023/10/14 01:28:32;;;;;;;;;;;;;;;6.00;78.51;99521.88;4953805;28;19926;-66
2023/10/14 01:31:33;;;;;;;;;;;;;;;5.89;78.39;99496.50;4963463;28;20028;-66
2023/10/14 01:34:05;;;;;;;;;;;;;;;5.98;78.85;99518.59;4961977;28;19930;-66
2023/10/14 01:36:37;;;;;;;;;;;;;;;6.00;79.11;99510.16;4963504;28;20458;-66
2023/10/14 01:39:11;;;;;;;;;;;;;;;5.97;79.23;99506.88;4947992;28;19937;-66
2023/10/14 01:41:36;;;;;;;;;;;;;;;5.95;79.42;99517.19;4962808;28;20334;-66
2023/10/14 01:44:05;;;;;;;;;;;;;;;5.94;79.11;99515.53;4964160;28;19997;-67
2023/10/14 01:46:34;;;;;;;;;;;;;;;5.96;79.26;99523.44;4963619;28;20484;-66
2023/10/14 01:49:09;;;;;;;;;;;;;;;5.93;79.67;99518.50;4949208;28;20384;-66
2023/10/14 01:51:35;;;;;;;;;;;;;;;5.92;79.62;99512.25;4965596;28;20015;-67
2023/10/14 01:54:03;;;;;;;;;;;;;;;5.93;80.17;99504.94;4965024;28;19926;-67
2023/10/14 01:56:30;;;;;;;;;;;;;;;5.94;80.31;99515.53;4966080;28;20069;-66
2023/10/14 01:58:59;;;;;;;;;;;;;;;5.93;80.26;99515.78;4935244;28;20313;-66
2023/10/14 02:01:28;;;;;;;;;;;;;;;5.93;79.78;99515.78;4966157;28;20028;-66
2023/10/14 02:03:54;;;;;;;;;;;;;;;5.91;80.13;99507.91;4963892;28;20181;-65
2023/10/14 02:06:25;;;;;;;;;;;;;;;5.92;80.44;99506.84;4965506;28;19926;-68
2023/10/14 02:08:51;;;;;;;;;;;;;;;5.92;80.60;99506.84;4948357;28;19925;-68
2023/10/14 02:11:20;;;;;;;;;;;;;;;5.94;80.47;99510.13;4965596;28;20254;-68
2023/10/14 02:13:52;;;;;;;;;;;;;;;5.95;80.68;99500.09;4947096;28;19949;-67
2023/10/14 02:16:25;;;;;;;;;;;;;;;5.92;80.72;99506.00;4965198;28;19932;-67
2023/10/14 02:18:51;;;;;;;;;;;;;;;5.89;81.03;99499.19;4948737;28;19936;-67
2023/10/14 02:21:42;;;;;;;;;;;;;;;5.90;80.96;99502.72;4942243;28;19926;-67
2023/10/14 02:24:10;;;;;;;;;;;;;;;5.91;81.12;99505.19;4965018;28;19937;-68
2023/10/14 02:26:38;;;;;;;;;;;;;;;5.90;81.20;99497.28;4947041;28;19925;-67
2023/10/14 02:29:10;;;;;;;;;;;;;;;5.88;81.04;99494.84;4964011;28;20461;-68
2023/10/14 02:31:36;;;;;;;;;;;;;;;5.89;81.31;99492.94;4963960;28;20041;-67
2023/10/14 02:34:06;;;;;;;;;;;;;;;5.88;81.22;99472.31;4967147;28;20473;-66
2023/10/14 02:36:35;;;;;;;;;;;;;;;5.86;81.37;99467.16;4967114;28;19926;-66
2023/10/14 02:39:01;;;;;;;;;;;;;;;5.84;81.58;99463.84;4952648;28;20028;-66
2023/10/14 02:41:30;;;;;;;;;;;;;;;5.84;81.59;99463.03;4964325;28;20279;-66
2023/10/14 02:46:43;;;;;;;;;;;;;;;5.81;81.78;99465.19;4964522;28;19926;-66
2023/10/14 02:49:14;;;;;;;;;;;;;;;5.78;81.83;99460.25;4941219;28;19926;-66
2023/10/14 02:51:42;;;;;;;;;;;;;;;5.81;81.72;99451.63;4938258;28;19926;-67
2023/10/14 02:54:26;;;;;;;;;;;;;;;5.85;81.56;99460.06;4955682;28;20420;-68
2023/10/14 02:59:19;;;;;;;;;;;;;;;5.81;81.53;99438.06;4965991;28;19926;-67
2023/10/14 03:04:55;;;;;;;;;;;;;;;5.79;81.68;99421.22;4962958;28;19926;-66
2023/10/14 03:07:28;;;;;;;;;;;;;;;5.80;81.93;99422.84;4965444;28;19925;-66
2023/10/14 03:09:58;;;;;;;;;;;;;;;5.80;81.86;99427.44;4951858;28;19981;-66
2023/10/14 03:12:24;;;;;;;;;;;;;;;5.76;82.03;99418.16;4949426;28;20405;-66
2023/10/14 03:14:52;;;;;;;;;;;;;;;5.74;81.90;99426.53;4965651;28;19928;-66
2023/10/14 03:17:55;;;;;;;;;;;;;;;5.71;82.10;99428.97;4962994;28;19926;-66
2023/10/14 03:22:54;;;;;;;;;;;;;;;5.71;82.44;99410.78;4959051;28;20278;-66
2023/10/14 03:25:23;;;;;;;;;;;;;;;5.71;82.56;99401.84;4948276;28;19932;-66
2023/10/14 03:27:48;;;;;;;;;;;;;;;5.71;82.77;99397.22;4962675;28;19926;-65
2023/10/14 03:30:15;;;;;;;;;;;;;;;5.71;82.76;99385.56;4946857;28;20018;-66
2023/10/14 03:32:42;;;;;;;;;;;;;;;5.74;82.70;99394.00;4962787;28;20385;-66
2023/10/14 03:35:12;;;;;;;;;;;;;;;5.76;82.36;99383.69;4967481;28;19972;-68
2023/10/14 03:37:52;;;;;;;;;;;;;;;5.80;82.55;99370.47;4943265;28;20445;-68
2023/10/14 03:43:08;;;;;;;;;;;;;;;5.84;82.03;99365.34;4947372;28;19937;-67
2023/10/14 03:45:45;;;;;;;;;;;;;;;5.83;82.25;99364.53;4947671;28;19926;-67
2023/10/14 03:48:13;;;;;;;;;;;;;;;5.85;82.21;99364.28;4962887;28;19974;-67
2023/10/14 03:50:39;;;;;;;;;;;;;;;5.87;82.24;99345.84;4964023;28;19980;-66
2023/10/14 03:53:05;;;;;;;;;;;;;;;5.90;82.22;99357.03;4964444;28;19930;-67
2023/10/14 03:55:31;;;;;;;;;;;;;;;5.93;82.10;99353.78;4965034;28;19926;-67
2023/10/14 03:58:06;;;;;;;;;;;;;;;5.92;81.92;99346.72;4960409;28;19932;-68
2023/10/14 04:00:38;;;;;;;;;;;;;;;5.87;82.07;99349.41;4964624;28;20023;-68
2023/10/14 04:03:06;;;;;;;;;;;;;;;5.86;82.17;99376.78;4946753;28;20000;-68
2023/10/14 04:05:37;;;;;;;;;;;;;;;5.85;82.03;99367.00;4964170;28;19926;-68
2023/10/14 04:08:05;;;;;;;;;;;;;;;5.81;82.24;99355.81;4947454;28;20320;-67
2023/10/14 04:10:35;;;;;;;;;;;;;;;5.79;82.17;99356.09;4965174;28;20357;-67
2023/10/14 04:13:04;;;;;;;;;;;;;;;5.80;82.32;99352.31;4965414;28;20000;-69
2023/10/14 04:17:55;;;;;;;;;;;;;;;5.84;82.22;99328.16;4964201;28;20137;-68
2023/10/14 04:20:32;;;;;;;;;;;;;;;5.89;82.37;99332.84;4967914;28;19925;-68
2023/10/14 04:23:05;;;;;;;;;;;;;;;5.93;82.04;99334.78;4962182;28;19926;-68
2023/10/14 04:25:42;;;;;;;;;;;;;;;5.96;81.86;99330.75;4964970;28;19926;-68
2023/10/14 04:28:19;;;;;;;;;;;;;;;5.95;81.90;99326.41;4943236;28;20413;-68
2023/10/14 04:30:45;;;;;;;;;;;;;;;6.00;81.75;99333.75;4962356;28;19988;-68
2023/10/14 04:33:21;;;;;;;;;;;;;;;6.02;81.48;99313.47;4944274;28;19934;-68
2023/10/14 04:38:42;;;;;;;;;;;;;;;6.10;81.07;99306.75;4960165;28;20337;-66
2023/10/14 04:41:14;;;;;;;;;;;;;;;6.10;81.11;99302.16;4965980;28;19980;-66
2023/10/14 04:48:37;;;;;;;;;;;;;;;6.23;80.36;99292.75;4964063;28;20383;-66
2023/10/14 04:51:08;;;;;;;;;;;;;;;6.26;80.32;99298.75;4964480;28;20389;-66
2023/10/14 04:53:35;;;;;;;;;;;;;;;6.30;79.93;99297.16;4965126;28;20024;-66
2023/10/14 04:56:04;;;;;;;;;;;;;;;6.30;80.01;99280.84;4963581;28;20020;-67
2023/10/14 04:58:32;;;;;;;;;;;;;;;6.28;80.07;99291.16;4961788;28;19969;-66
2023/10/14 05:01:00;;;;;;;;;;;;;;;6.28;80.01;99278.41;4949247;28;19930;-66
2023/10/14 05:03:33;;;;;;;;;;;;;;;6.32;80.21;99290.41;4935769;28;20403;-67
2023/10/14 05:08:44;;;;;;;;;;;;;;;6.43;79.55;99276.91;4965920;28;19926;-66
2023/10/14 05:11:12;;;;;;;;;;;;;;;6.42;79.51;99254.34;4962818;28;20763;-66
2023/10/14 05:13:39;;;;;;;;;;;;;;;6.60;79.15;99269.41;4948433;28;19933;-66
2023/10/14 05:16:26;;;;;;;;;;;;;;;6.72;78.66;99274.66;4967503;28;20028;-65
2023/10/14 05:19:06;;;;;;;;;;;;;;;6.74;77.99;99264.34;4944109;28;19926;-68
2023/10/14 05:21:35;;;;;;;;;;;;;;;6.78;77.91;99251.06;4963640;28;20356;-68
2023/10/14 05:24:09;;;;;;;;;;;;;;;6.82;77.93;99246.72;4966701;28;19949;-68
2023/10/14 05:26:45;;;;;;;;;;;;;;;6.89;77.58;99246.47;4961052;28;20400;-68
2023/10/14 05:29:17;;;;;;;;;;;;;;;6.93;77.28;99242.16;4957810;28;19925;-67
2023/10/14 05:31:43;;;;;;;;;;;;;;;7.01;77.10;99240.81;4948121;28;19933;-68
2023/10/14 05:34:09;;;;;;;;;;;;;;;7.05;76.60;99221.00;4946296;28;20030;-68
2023/10/14 05:36:35;;;;;;;;;;;;;;;7.12;76.23;99212.59;4963062;28;19933;-68
2023/10/14 05:39:02;;;;;;;;;;;;;;;7.15;76.24;99212.06;4967453;28;19930;-68
2023/10/14 05:41:30;;;;;;;;;;;;;;;7.25;76.10;99219.44;4968543;28;19933;-67
2023/10/14 05:43:55;;;;;;;;;;;;;;;7.31;75.84;99206.69;4967549;28;19949;-67
2023/10/14 05:46:21;;;;;;;;;;;;;;;7.36;75.64;99209.44;4950156;28;19930;-68
2023/10/14 05:48:47;;;;;;;;;;;;;;;7.44;75.19;99210.81;4950474;28;19930;-66
2023/10/14 05:51:15;;;;;;;;;;;;;;;7.44;74.82;99210.81;4949691;28;19930;-66
2023/10/14 05:53:42;;;;;;;;;;;;;;;7.47;74.61;99215.72;4948653;28;20302;-66
2023/10/14 05:56:14;;;;;;;;;;;;;;;7.52;74.68;99207.56;4959976;28;19970;-66
2023/10/14 05:58:41;;;;;;;;;;;;;;;7.52;74.18;99211.09;4951510;28;20404;-66
2023/10/14 06:01:08;;;;;;;;;;;;;;;7.52;74.31;99207.56;4949668;28;19932;-66
2023/10/14 06:03:34;;;;;;;;;;;;;;;7.54;74.35;99205.38;4966193;28;20062;-66
2023/10/14 06:06:01;;;;;;;;;;;;;;;7.52;74.18;99183.91;4967377;28;19948;-66
2023/10/14 06:08:27;;;;;;;;;;;;;;;7.27;74.08;99140.31;4965162;28;20032;-66
2023/10/14 06:10:53;;;;;;;;;;;;;;;7.55;74.26;99176.28;4965206;28;20290;-66
2023/10/14 06:13:19;;;;;;;;;;;;;;;7.60;74.01;99179.84;4964502;28;19925;-67
2023/10/14 06:15:47;;;;;;;;;;;;;;;7.65;74.06;99165.44;4956578;28;19933;-67
2023/10/14 06:18:15;;;;;;;;;;;;;;;7.71;73.65;99158.88;4955621;28;19925;-68
2023/10/14 06:20:42;;;;;;;;;;;;;;;7.78;73.72;99173.03;4942726;28;19933;-68
2023/10/14 06:23:08;;;;;;;;;;;;;;;7.78;73.52;99158.63;4964972;28;19926;-68
2023/10/14 06:25:36;;;;;;;;;;;;;;;7.79;73.82;99147.44;4944970;28;20008;-68
2023/10/14 06:28:03;;;;;;;;;;;;;;;7.81;74.43;99158.06;4964379;28;19933;-69
2023/10/14 06:30:29;;;;;;;;;;;;;;;7.72;74.97;99146.91;4948741;28;19984;-69
2023/10/14 06:33:05;;;;;;;;;;;;;;;7.66;75.73;99140.66;4939578;28;19980;-68
2023/10/14 06:35:32;;;;;;;;;;;;;;;7.51;76.44;99141.47;4966633;28;20374;-68
2023/10/14 06:38:04;;;;;;;;;;;;;;;7.61;77.25;99158.88;4966097;28;19940;-68
2023/10/14 06:40:35;;;;;;;;;;;;;;;7.56;77.47;99142.56;4964691;28;19926;-69
2023/10/14 06:43:06;;;;;;;;;;;;;;;7.51;78.53;99151.50;4961616;28;19972;-68
2023/10/14 06:45:32;;;;;;;;;;;;;;;7.50;78.80;99130.84;4965797;28;20350;-67
2023/10/14 06:48:03;;;;;;;;;;;;;;;7.52;79.10;99132.22;4964818;28;20020;-66
2023/10/14 06:50:29;;;;;;;;;;;;;;;7.54;79.32;99115.59;4946243;28;20421;-66
2023/10/14 06:52:58;;;;;;;;;;;;;;;7.51;79.59;99110.72;4938450;28;19934;-66
2023/10/14 06:55:26;;;;;;;;;;;;;;;7.51;79.46;99099.81;4960382;28;19930;-66
2023/10/14 06:57:53;;;;;;;;;;;;;;;7.53;79.94;99086.78;4957935;28;19926;-68
2023/10/14 07:00:25;;;;;;;;;;;;;;;7.51;80.37;99084.34;4938522;28;19926;-67
2023/10/14 07:02:52;;;;;;;;;;;;;;;7.50;80.50;99085.44;4965494;28;19969;-67
2023/10/14 07:05:19;;;;;;;;;;;;;;;7.49;80.51;99072.91;4965678;28;19934;-67
2023/10/14 07:07:46;;;;;;;;;;;;;;;7.51;80.59;99061.75;4956503;28;19981;-66
2023/10/14 07:10:12;;;;;;;;;;;;;;;7.55;80.26;99067.47;4965095;28;19961;-66
2023/10/14 07:12:38;;;;;;;;;;;;;;;7.55;80.57;99060.09;4962638;28;19953;-66
2023/10/14 07:15:05;;;;;;;;;;;;;;;7.60;80.78;99062.84;4964838;28;19926;-66
2023/10/14 07:17:31;;;;;;;;;;;;;;;7.68;80.72;99052.47;4965308;28;19926;-66
2023/10/14 07:19:57;;;;;;;;;;;;;;;7.74;80.55;99054.13;4963611;28;19948;-66
2023/10/14 07:22:24;;;;;;;;;;;;;;;7.71;80.75;99036.44;4965348;28;19926;-69
2023/10/14 07:24:52;;;;;;;;;;;;;;;7.72;81.19;99038.06;4948425;28;20078;-66
2023/10/14 07:27:18;;;;;;;;;;;;;;;7.75;81.58;99036.69;4952245;28;20047;-66
2023/10/14 07:29:45;;;;;;;;;;;;;;;7.73;81.98;99042.41;4965810;28;19961;-67
2023/10/14 07:32:15;;;;;;;;;;;;;;;7.72;82.37;99008.13;4965521;28;19932;-67
2023/10/14 07:34:40;;;;;;;;;;;;;;;7.75;82.52;99040.22;4936648;28;20139;-70
2023/10/14 07:37:06;;;;;;;;;;;;;;;7.80;82.37;99006.75;4946483;28;19929;-68
2023/10/14 07:39:36;;;;;;;;;;;;;;;7.92;82.22;99007.28;4963346;28;20329;-69
2023/10/14 07:42:09;;;;;;;;;;;;;;;8.03;81.87;98990.88;4946137;28;19980;-68
2023/10/14 07:44:35;;;;;;;;;;;;;;;8.08;82.15;98994.41;4963929;28;19972;-70
2023/10/14 07:47:05;;;;;;;;;;;;;;;8.08;82.96;98999.06;4967727;28;19926;-68
2023/10/14 07:49:32;;;;;;;;;;;;;;;8.00;84.26;98996.88;4965037;28;20354;-68
2023/10/14 07:52:00;;;;;;;;;;;;;;;7.93;85.29;98997.19;4963316;28;20040;-69
2023/10/14 07:54:27;;;;;;;;;;;;;;;7.80;86.39;98988.53;4963294;28;19926;-66
2023/10/14 07:56:55;;;;;;;;;;;;;;;7.76;87.14;98978.47;4962933;28;20309;-66
2023/10/14 07:59:20;;;;;;;;;;;;;;;7.75;87.65;98971.41;4962332;28;19926;-66
2023/10/14 08:01:47;;;;;;;;;;;;;;;7.76;87.82;98981.97;4945960;28;19925;-66
2023/10/14 08:04:16;;;;;;;;;;;;;;;7.75;87.88;98980.34;4967436;28;19993;-68
2023/10/14 08:06:43;;;;;;;;;;;;;;;7.77;88.01;98994.50;4961830;28;19926;-68
2023/10/14 08:09:32;;;;;;;;;;;;;;;7.71;88.50;98981.19;4947553;28;20294;-68
2023/10/14 08:11:59;;;;;;;;;;;;;;;7.58;90.32;98975.25;4960606;28;20327;-68
2023/10/14 08:14:25;;;;;;;;;;;;;;;7.52;91.64;98962.72;4961916;28;19970;-68
2023/10/14 08:16:51;;;;;;;;;;;;;;;7.49;92.69;98934.19;4956748;28;20298;-67
2023/10/14 08:19:21;;;;;;;;;;;;;;;7.44;93.42;98933.38;4962829;28;19937;-67
2023/10/14 08:21:50;;;;;;;;;;;;;;;7.40;94.03;98914.06;4957438;28;19937;-66
2023/10/14 08:24:18;;;;;;;;;;;;;;;7.38;94.53;98913.53;4963255;28;20428;-66
2023/10/14 08:26:46;;;;;;;;;;;;;;;7.43;94.50;98931.75;4947210;28;20302;-66
2023/10/14 08:29:13;;;;;;;;;;;;;;;7.36;94.84;98924.66;4945299;28;20025;-66
2023/10/14 08:31:42;;;;;;;;;;;;;;;7.32;94.82;98923.59;4966013;28;19980;-66
2023/10/14 08:34:09;;;;;;;;;;;;;;;7.34;95.23;98915.19;4964684;28;19926;-66
2023/10/14 08:36:35;;;;;;;;;;;;;;;7.37;95.12;98914.63;4967731;28;19926;-68
2023/10/14 08:39:01;;;;;;;;;;;;;;;7.38;95.21;98919.78;4950851;28;20221;-66
2023/10/14 08:41:27;;;;;;;;;;;;;;;7.42;95.16;98916.53;4964928;28;20544;-66
2023/10/14 08:43:56;;;;;;;;;;;;;;;7.47;95.19;98902.91;4963480;28;19953;-66
2023/10/14 08:46:29;;;;;;;;;;;;;;;7.54;94.80;98889.00;4964024;28;19930;-66
2023/10/14 08:48:55;;;;;;;;;;;;;;;7.55;95.14;98896.88;4949596;28;20216;-68
2023/10/14 08:51:24;;;;;;;;;;;;;;;7.55;95.21;98883.28;4967490;28;19926;-68
2023/10/14 08:53:53;;;;;;;;;;;;;;;7.57;95.34;98888.44;4966751;28;20273;-68
2023/10/14 08:56:19;;;;;;;;;;;;;;;7.58;95.34;98884.63;4967686;28;20389;-67
2023/10/14 08:58:45;;;;;;;;;;;;;;;7.62;95.12;98872.09;4964943;28;19981;-66
2023/10/14 09:01:14;;;;;;;;;;;;;;;7.70;94.71;98870.72;4967301;28;19926;-66
2023/10/14 09:03:43;;;;;;;;;;;;;;;7.75;94.37;98860.63;4950474;28;19929;-66
2023/10/14 09:06:11;;;;;;;;;;;;;;;7.85;93.97;98867.91;4947638;28;19954;-66
2023/10/14 09:08:37;;;;;;;;;;;;;;;7.95;93.72;98848.81;4965208;28;20402;-67
2023/10/14 09:11:03;;;;;;;;;;;;;;;8.05;93.27;98856.13;4963984;28;20405;-66
2023/10/14 09:13:30;;;;;;;;;;;;;;;8.13;92.77;98849.25;4948959;29;19926;-67
2023/10/14 09:15:57;;;;;;;;;;;;;;;8.25;92.40;98848.13;4948347;29;19932;-69
2023/10/14 09:18:32;;;;;;;;;;;;;;;8.36;91.78;98855.94;4965138;28;20044;-68
2023/10/14 09:21:00;;;;;;;;;;;;;;;8.46;91.25;98859.69;4945429;29;19934;-68
2023/10/14 09:23:27;;;;;;;;;;;;;;;8.63;90.74;98845.66;4948252;29;19926;-68
2023/10/14 09:25:55;;;;;;;;;;;;;;;8.84;89.70;98838.13;4948981;28;19927;-66
2023/10/14 09:28:21;;;;;;;;;;;;;;;9.02;88.52;98838.50;4964219;28;19968;-66
2023/10/14 09:30:50;;;;;;;;;;;;;;;9.13;88.02;98841.94;4947992;28;19930;-67
2023/10/14 09:33:18;;;;;;;;;;;;;;;9.21;87.17;98820.31;4950641;28;20386;-66
2023/10/14 09:35:49;;;;;;;;;;;;;;;9.29;86.59;98821.59;4957500;28;19973;-67
2023/10/14 09:38:20;;;;;;;;;;;;;;;9.40;85.93;98808.66;4948524;28;19931;-68
2023/10/14 09:40:50;;;;;;;;;;;;;;;9.49;85.57;98822.47;4946253;28;20472;-67
2023/10/14 09:43:17;;;;;;;;;;;;;;;9.63;84.55;98803.44;4948336;28;19996;-67
2023/10/14 09:45:44;;;;;;;;;;;;;;;9.81;83.88;98807.31;4946264;28;19985;-68
2023/10/14 09:48:11;;;;;;;;;;;;;;;9.92;82.86;98802.53;4965066;28;19926;-67
2023/10/14 09:50:36;;;;;;;;;;;;;;;10.04;82.41;98805.63;4961332;28;19926;-69
2023/10/14 09:53:03;;;;;;;;;;;;;;;10.25;81.29;98807.25;4945074;29;20021;-69
2023/10/14 09:55:31;;;;;;;;;;;;;;;10.48;80.08;98778.22;4948570;29;19933;-69
2023/10/14 09:57:58;;;;;;;;;;;;;;;10.59;79.34;98836.25;4947300;28;19936;-69
2023/10/14 10:00:26;;;;;;;;;;;;;;;10.78;78.63;98795.19;4947275;28;20319;-67
2023/10/14 10:02:53;;;;;;;;;;;;;;;11.14;76.34;98789.06;4944235;28;19927;-67
2023/10/14 10:05:23;;;;;;;;;;;;;;;11.38;75.04;98820.88;4963796;28;19970;-69
2023/10/14 10:07:53;;;;;;;;;;;;;;;11.45;75.35;98793.91;4964293;28;19933;-67
2023/10/14 10:10:22;;;;;;;;;;;;;;;11.55;74.58;98803.84;4962554;28;20033;-67
2023/10/14 10:12:53;;;;;;;;;;;;;;;11.53;74.52;98813.47;4962607;28;19931;-67
2023/10/14 10:15:19;;;;;;;;;;;;;;;11.27;75.47;98816.75;4949900;28;19926;-67
2023/10/14 10:17:53;;;;;;;;;;;;;;;11.24;75.96;98795.44;4946153;29;20350;-67
2023/10/14 10:20:26;;;;;;;;;;;;;;;11.27;75.72;98812.06;4959608;28;20459;-67
2023/10/14 10:22:52;;;;;;;;;;;;;;;11.09;76.62;98808.31;4961952;28;20133;-67
2023/10/14 10:25:20;;;;;;;;;;;;;;;11.00;77.48;98799.19;4950308;29;19933;-68
2023/10/14 10:27:49;;;;;;;;;;;;;;;10.95;77.69;98808.28;4947510;28;20082;-67
2023/10/14 10:30:19;;;;;;;;;;;;;;;10.87;78.15;98793.38;4948490;28;19933;-68
2023/10/14 10:32:48;;;;;;;;;;;;;;;10.86;78.24;98794.50;4947834;28;19926;-67
2023/10/14 10:35:16;;;;;;;;;;;;;;;10.85;78.57;98803.81;4944958;28;19973;-67
2023/10/14 10:37:46;;;;;;;;;;;;;;;10.86;78.56;98796.44;4943605;28;20455;-67
2023/10/14 10:40:13;;;;;;;;;;;;;;;10.91;78.57;98782.66;4947253;28;20021;-67
2023/10/14 10:42:41;;;;;;;;;;;;;;;10.97;78.48;98794.31;4944791;29;20461;-67
2023/10/14 10:45:09;;;;;;;;;;;;;;;10.99;78.54;98790.16;4965040;28;20465;-67
2023/10/14 10:47:45;;;;;;;;;;;;;;;11.02;78.57;98766.84;4946715;28;19950;-67
2023/10/14 10:50:14;;;;;;;;;;;;;;;11.01;78.71;98787.94;4946674;28;19926;-67
2023/10/14 10:52:40;;;;;;;;;;;;;;;11.04;78.85;98776.41;4959254;28;20009;-67
2023/10/14 10:55:06;;;;;;;;;;;;;;;11.04;79.06;98776.41;4945995;28;20025;-67
2023/10/14 10:57:32;;;;;;;;;;;;;;;11.13;79.19;98790.19;4960519;28;19993;-67
2023/10/14 10:59:58;;;;;;;;;;;;;;;11.17;79.32;98782.97;4944835;29;19933;-67
2023/10/14 11:02:24;;;;;;;;;;;;;;;11.18;78.78;98776.38;4946664;28;19926;-67
2023/10/14 11:04:51;;;;;;;;;;;;;;;11.24;78.89;98792.69;4955782;28;19926;-67
2023/10/14 11:07:19;;;;;;;;;;;;;;;11.29;78.93;98777.00;4967080;28;20395;-66
2023/10/14 11:09:49;;;;;;;;;;;;;;;11.34;78.38;98787.03;4964591;28;20284;-67
2023/10/14 11:12:18;;;;;;;;;;;;;;;11.29;78.62;98806.28;4940101;28;19929;-67
2023/10/14 11:14:44;;;;;;;;;;;;;;;11.24;78.40;98766.16;4969928;28;19969;-67
2023/10/14 11:17:10;;;;;;;;;;;;;;;11.33;78.69;98788.16;4955464;28;19972;-67
2023/10/14 11:19:36;;;;;;;;;;;;;;;11.42;77.71;98813.69;4964266;28;19973;-66
2023/10/14 11:22:04;;;;;;;;;;;;;;;11.45;77.09;98780.22;4964182;28;19932;-67
2023/10/14 11:24:30;;;;;;;;;;;;;;;11.52;76.96;98770.78;4933513;28;20401;-67
2023/10/14 11:26:57;;;;;;;;;;;;;;;11.61;76.93;98796.34;4963861;28;20262;-68
2023/10/14 11:29:23;;;;;;;;;;;;;;;11.65;76.45;98769.16;4965168;28;19926;-67
2023/10/14 11:31:53;;;;;;;;;;;;;;;11.68;76.03;98766.59;4964600;28;19933;-68
2023/10/14 11:34:20;;;;;;;;;;;;;;;11.68;75.87;98766.59;4947495;28;19961;-67
2023/10/14 11:36:48;;;;;;;;;;;;;;;11.68;76.26;98760.34;4948852;28;19926;-67
2023/10/14 11:39:18;;;;;;;;;;;;;;;11.61;76.30;98769.75;4963985;28;19933;-68
2023/10/14 11:41:44;;;;;;;;;;;;;;;11.59;76.69;98782.94;4967620;28;19925;-68
2023/10/14 11:44:10;;;;;;;;;;;;;;;11.58;76.91;98772.31;4964060;28;20024;-68
2023/10/14 11:46:38;;;;;;;;;;;;;;;11.59;76.79;98757.50;4962774;28;20028;-68
2023/10/14 11:49:09;;;;;;;;;;;;;;;11.59;76.91;98747.34;4962963;28;19925;-68
2023/10/14 11:51:37;;;;;;;;;;;;;;;11.60;76.82;98734.50;4963282;28;19930;-67
2023/10/14 11:54:03;;;;;;;;;;;;;;;11.64;77.27;98754.66;4961310;28;19926;-67
2023/10/14 11:56:32;;;;;;;;;;;;;;;11.64;77.33;98751.91;4963536;28;19926;-67
2023/10/14 11:59:00;;;;;;;;;;;;;;;11.65;77.28;98742.59;4964177;28;20239;-67
2023/10/14 12:01:26;;;;;;;;;;;;;;;11.66;77.27;98752.41;4967177;28;19930;-68
2023/10/14 12:03:52;;;;;;;;;;;;;;;11.66;77.19;98752.41;4962854;28;19932;-68
2023/10/14 12:06:18;;;;;;;;;;;;;;;11.69;77.34;98757.28;4945399;28;20301;-68
2023/10/14 12:08:45;;;;;;;;;;;;;;;11.70;77.25;98747.13;4947440;28;20351;-67
2023/10/14 12:11:14;;;;;;;;;;;;;;;11.70;77.24;98744.41;4945011;28;20408;-67
2023/10/14 12:13:41;;;;;;;;;;;;;;;11.72;76.80;98734.78;4258761;28;10000006;-67
2023/10/14 12:16:07;;;;;;;;;;;;;;;11.76;76.96;98743.16;4949832;28;19987;-67
2023/10/14 12:18:36;;;;;;;;;;;;;;;11.78;76.83;98743.66;4934328;28;19958;-68
2023/10/14 12:21:02;;;;;;;;;;;;;;;11.81;76.44;98726.63;4954398;28;19926;-67
2023/10/14 12:23:31;;;;;;;;;;;;;;;11.84;76.60;98734.22;4937564;29;19937;-67
2023/10/14 12:25:58;;;;;;;;;;;;;;;11.91;76.44;98728.31;4956783;28;20416;-67
2023/10/14 12:28:30;;;;;;;;;;;;;;;11.97;76.26;98718.84;4940040;28;19926;-67
2023/10/14 12:31:06;;;;;;;;;;;;;;;11.99;76.47;98726.78;4960212;28;19926;-68
2023/10/14 12:33:35;;;;;;;;;;;;;;;11.92;76.31;98710.75;4939414;29;19926;-67
2023/10/14 12:36:06;;;;;;;;;;;;;;;12.04;75.99;98716.53;4941512;29;19933;-68
2023/10/14 12:38:32;;;;;;;;;;;;;;;12.04;76.01;98718.44;4946402;28;20653;-67
2023/10/14 12:41:01;;;;;;;;;;;;;;;12.04;76.15;98719.28;4943616;28;19934;-67
2023/10/14 12:43:28;;;;;;;;;;;;;;;12.02;76.16;98727.00;4945585;28;19981;-69
2023/10/14 12:46:02;;;;;;;;;;;;;;;12.02;76.33;98724.25;4959072;28;19931;-68
2023/10/14 12:48:30;;;;;;;;;;;;;;;12.03;76.65;98714.09;4941120;29;20473;-67
2023/10/14 12:50:56;;;;;;;;;;;;;;;12.04;76.58;98732.16;4944736;29;20059;-68
2023/10/14 12:53:21;;;;;;;;;;;;;;;12.07;76.37;98701.38;4945347;28;19949;-67
2023/10/14 12:55:49;;;;;;;;;;;;;;;12.11;76.36;98693.34;4928413;28;19930;-69
2023/10/14 12:58:17;;;;;;;;;;;;;;;12.14;76.41;98696.28;4923034;29;19945;-68
2023/10/14 13:00:43;;;;;;;;;;;;;;;12.17;76.45;98687.44;4923299;29;19927;-68
2023/10/14 13:03:09;;;;;;;;;;;;;;;12.22;76.42;98686.50;4925124;29;19954;-68
2023/10/14 13:05:46;;;;;;;;;;;;;;;12.24;76.59;98689.75;4960230;28;20477;-68
2023/10/14 13:08:18;;;;;;;;;;;;;;;12.29;76.48;98677.84;4929129;29;19932;-68
2023/10/14 13:10:44;;;;;;;;;;;;;;;12.31;76.26;98683.81;4945760;28;20029;-68
2023/10/14 13:13:12;;;;;;;;;;;;;;;12.34;76.33;98674.97;4942877;29;20022;-67
2023/10/14 13:15:38;;;;;;;;;;;;;;;12.38;76.36;98684.16;4945267;28;20420;-68
2023/10/14 13:18:12;;;;;;;;;;;;;;;12.42;76.05;98684.34;4946802;28;19981;-68
2023/10/14 13:20:39;;;;;;;;;;;;;;;12.46;76.06;98688.91;4962195;28;20386;-68
2023/10/14 13:23:08;;;;;;;;;;;;;;;12.52;76.05;98675.88;4944283;29;19927;-68
2023/10/14 13:25:38;;;;;;;;;;;;;;;12.55;75.94;98677.16;4944635;28;19933;-68
2023/10/14 13:28:08;;;;;;;;;;;;;;;12.56;76.10;98654.91;4946272;29;19933;-70
2023/10/14 13:30:34;;;;;;;;;;;;;;;12.59;75.70;98653.47;4944887;28;19926;-68